Time;durP1;ratioP1;P1;durP2;ratioP2;P2;SDS_P1;SDS_P2;PMS_P1;PMS_P2;Temp;Humidity;BMP_temperature;BMP_pressure;BME280_temperature;BME280_humidity;BME280_pressure;Samples;Min_cycle;Max_cycle;Signal;HPM_P1;HPM_P2
2023/10/11 00:01:01;;;;;;;;;;;17.60;99.90;;;;;;5135409;27;19981;-64
2023/10/11 00:05:53;;;;;;;;;;;17.30;99.90;;;;;;5135703;27;20081;-64
2023/10/11 00:08:19;;;;;;;;;;;17.30;99.90;;;;;;5135220;27;20056;-64
2023/10/11 00:10:53;;;;;;;;;;;17.30;99.90;;;;;;5135045;27;20005;-64
2023/10/11 00:13:20;;;;;;;;;;;17.30;99.90;;;;;;5135265;27;20069;-64
2023/10/11 00:15:49;;;;;;;;;;;17.20;99.90;;;;;;5134485;27;19980;-64
2023/10/11 00:18:17;;;;;;;;;;;17.30;99.90;;;;;;5135121;27;20016;-64
2023/10/11 00:23:08;;;;;;;;;;;17.20;99.90;;;;;;5135313;27;20117;-64
2023/10/11 00:25:34;;;;;;;;;;;17.20;99.90;;;;;;5134903;27;20015;-64
2023/10/11 00:27:59;;;;;;;;;;;17.10;99.90;;;;;;5135054;27;20012;-64
2023/10/11 00:30:25;;;;;;;;;;;17.00;99.90;;;;;;5134808;27;20011;-64
2023/10/11 00:32:54;;;;;;;;;;;17.00;99.90;;;;;;5135289;27;20033;-64
2023/10/11 00:35:24;;;;;;;;;;;16.90;99.90;;;;;;5134883;27;20430;-64
2023/10/11 00:37:51;;;;;;;;;;;16.90;99.90;;;;;;5134649;27;19984;-64
2023/10/11 00:40:31;;;;;;;;;;;16.90;99.90;;;;;;5135013;27;20075;-64
2023/10/11 00:42:58;;;;;;;;;;;16.90;99.90;;;;;;5118057;27;20020;-64
2023/10/11 00:45:26;;;;;;;;;;;16.90;99.90;;;;;;5135162;27;19984;-64
2023/10/11 00:47:55;;;;;;;;;;;16.80;99.90;;;;;;5134781;27;19984;-64
2023/10/11 00:50:24;;;;;;;;;;;16.80;99.90;;;;;;5134288;27;20020;-64
2023/10/11 00:52:50;;;;;;;;;;;16.80;99.90;;;;;;5134478;27;20458;-64
2023/10/11 00:55:18;;;;;;;;;;;16.80;99.90;;;;;;5134701;27;20079;-64
2023/10/11 00:57:48;;;;;;;;;;;16.80;99.90;;;;;;5116038;28;20033;-64
2023/10/11 01:00:21;;;;;;;;;;;16.70;99.90;;;;;;5134613;28;20086;-64
2023/10/11 01:02:47;;;;;;;;;;;16.70;99.90;;;;;;5134535;28;20016;-64
2023/10/11 01:05:13;;;;;;;;;;;16.60;99.90;;;;;;5134425;28;19987;-64
2023/10/11 01:07:39;;;;;;;;;;;16.60;99.90;;;;;;5115984;28;19984;-64
2023/10/11 01:10:05;;;;;;;;;;;16.60;99.90;;;;;;5134386;28;20004;-64
2023/10/11 01:12:32;;;;;;;;;;;16.60;99.90;;;;;;5134391;28;20045;-64
2023/10/11 01:14:58;;;;;;;;;;;16.60;99.90;;;;;;5116036;28;20331;-64
2023/10/11 01:17:31;;;;;;;;;;;16.60;99.90;;;;;;5134412;28;20076;-64
2023/10/11 01:20:00;;;;;;;;;;;16.60;99.90;;;;;;5134298;28;20006;-64
2023/10/11 01:22:28;;;;;;;;;;;16.60;99.90;;;;;;5134228;28;19984;-64
2023/10/11 01:24:55;;;;;;;;;;;16.50;99.90;;;;;;5134372;28;20429;-64
2023/10/11 01:27:22;;;;;;;;;;;16.50;99.90;;;;;;5136535;27;19980;-64
2023/10/11 01:29:47;;;;;;;;;;;16.40;99.90;;;;;;5138375;27;20004;-64
2023/10/11 01:32:13;;;;;;;;;;;16.40;99.90;;;;;;5138422;27;20079;-64
2023/10/11 01:34:39;;;;;;;;;;;16.30;99.90;;;;;;5138293;27;20430;-64
2023/10/11 01:37:06;;;;;;;;;;;16.40;99.90;;;;;;5138127;27;20311;-64
2023/10/11 01:39:32;;;;;;;;;;;16.30;99.90;;;;;;5138299;27;19980;-64
2023/10/11 01:41:58;;;;;;;;;;;16.20;99.90;;;;;;5138187;27;20434;-64
2023/10/11 01:44:24;;;;;;;;;;;16.20;99.90;;;;;;5138170;27;19987;-64
2023/10/11 01:46:50;;;;;;;;;;;16.10;99.90;;;;;;5138126;27;20346;-64
2023/10/11 01:49:15;;;;;;;;;;;16.20;99.90;;;;;;5137693;27;20016;-64
2023/10/11 01:51:47;;;;;;;;;;;16.10;99.90;;;;;;5137876;27;20442;-64
2023/10/11 01:54:15;;;;;;;;;;;16.10;99.90;;;;;;5137887;27;20044;-64
2023/10/11 01:56:45;;;;;;;;;;;16.10;99.90;;;;;;5137884;27;20006;-64
2023/10/11 01:59:12;;;;;;;;;;;16.10;99.90;;;;;;5137878;27;19987;-64
2023/10/11 02:01:40;;;;;;;;;;;16.00;99.90;;;;;;5137851;27;19981;-64
2023/10/11 02:04:10;;;;;;;;;;;15.90;99.90;;;;;;5137652;27;20028;-64
2023/10/11 02:06:38;;;;;;;;;;;15.90;99.90;;;;;;5137555;27;20067;-64
2023/10/11 02:09:03;;;;;;;;;;;15.90;99.90;;;;;;5137676;27;19991;-64
2023/10/11 02:11:29;;;;;;;;;;;16.00;99.90;;;;;;5137520;27;20000;-64
2023/10/11 02:13:57;;;;;;;;;;;15.90;99.90;;;;;;5137648;27;19984;-63
2023/10/11 02:16:23;;;;;;;;;;;15.90;99.90;;;;;;5137604;27;20027;-64
2023/10/11 02:18:53;;;;;;;;;;;15.90;99.90;;;;;;5137405;27;20026;-64
2023/10/11 02:21:19;;;;;;;;;;;15.90;99.90;;;;;;5137248;27;19991;-64
2023/10/11 02:23:46;;;;;;;;;;;15.90;99.90;;;;;;5137376;27;20082;-64
2023/10/11 02:26:16;;;;;;;;;;;15.90;99.90;;;;;;5137300;27;19980;-64
2023/10/11 02:28:43;;;;;;;;;;;15.80;99.90;;;;;;5137284;27;19987;-64
2023/10/11 02:31:08;;;;;;;;;;;15.80;99.90;;;;;;5137184;27;20054;-64
2023/10/11 02:33:34;;;;;;;;;;;15.80;99.90;;;;;;5137129;27;20012;-64
2023/10/11 02:36:08;;;;;;;;;;;15.80;99.90;;;;;;5137063;27;20510;-64
2023/10/11 02:38:47;;;;;;;;;;;15.80;99.90;;;;;;5136585;27;20017;-64
2023/10/11 02:41:20;;;;;;;;;;;15.80;99.90;;;;;;5137046;27;19984;-63
2023/10/11 02:43:49;;;;;;;;;;;15.80;99.90;;;;;;5137034;27;19987;-64
2023/10/11 02:46:22;;;;;;;;;;;15.70;99.90;;;;;;5118453;27;20374;-64
2023/10/11 02:49:05;;;;;;;;;;;15.70;99.90;;;;;;5136710;27;20012;-64
2023/10/11 02:51:33;;;;;;;;;;;15.70;99.90;;;;;;5136707;27;20466;-64
2023/10/11 02:53:59;;;;;;;;;;;15.70;99.90;;;;;;5136848;27;19997;-63
2023/10/11 02:56:24;;;;;;;;;;;15.70;99.90;;;;;;5136819;27;19981;-64
2023/10/11 02:58:50;;;;;;;;;;;15.70;99.90;;;;;;5118258;27;19984;-64
2023/10/11 03:01:20;;;;;;;;;;;15.60;99.90;;;;;;5136785;27;19981;-64
2023/10/11 03:03:47;;;;;;;;;;;15.60;99.90;;;;;;5136415;27;19980;-64
2023/10/11 03:06:13;;;;;;;;;;;15.50;99.90;;;;;;5136483;27;19991;-64
2023/10/11 03:08:40;;;;;;;;;;;15.50;99.90;;;;;;5118163;27;19991;-64
2023/10/11 03:11:15;;;;;;;;;;;15.50;99.90;;;;;;5136412;27;20019;-64
2023/10/11 03:13:44;;;;;;;;;;;15.50;99.90;;;;;;5136378;27;19984;-64
2023/10/11 03:16:13;;;;;;;;;;;15.40;99.90;;;;;;5136421;27;20009;-63
2023/10/11 03:18:40;;;;;;;;;;;15.40;99.90;;;;;;5136197;27;19981;-64
2023/10/11 03:21:17;;;;;;;;;;;15.40;99.90;;;;;;5136315;27;19990;-64
2023/10/11 03:23:44;;;;;;;;;;;15.30;99.90;;;;;;5136276;27;19980;-63
2023/10/11 03:26:17;;;;;;;;;;;15.30;99.90;;;;;;5136144;27;20030;-64
2023/10/11 03:28:43;;;;;;;;;;;15.30;99.90;;;;;;5136114;27;20032;-63
2023/10/11 03:31:12;;;;;;;;;;;15.30;99.90;;;;;;5136038;27;20012;-64
2023/10/11 03:33:40;;;;;;;;;;;15.20;99.90;;;;;;5135828;27;19981;-63
2023/10/11 03:36:17;;;;;;;;;;;15.20;99.90;;;;;;5136075;27;20353;-63
2023/10/11 03:38:51;;;;;;;;;;;15.10;99.90;;;;;;5135831;27;19980;-64
2023/10/11 03:41:17;;;;;;;;;;;15.10;99.90;;;;;;5135881;27;19980;-63
2023/10/11 03:43:42;;;;;;;;;;;15.10;99.90;;;;;;5135897;27;20033;-64
2023/10/11 03:46:09;;;;;;;;;;;15.10;99.90;;;;;;5135506;27;19980;-64
2023/10/11 03:48:44;;;;;;;;;;;15.10;99.90;;;;;;5135665;27;20019;-63
2023/10/11 03:51:12;;;;;;;;;;;15.00;99.90;;;;;;5134699;27;20003;-64
2023/10/11 03:53:41;;;;;;;;;;;15.00;99.90;;;;;;5135519;27;20003;-64
2023/10/11 03:56:07;;;;;;;;;;;15.00;99.90;;;;;;5135703;27;19981;-64
2023/10/11 03:58:33;;;;;;;;;;;14.90;99.90;;;;;;5135492;27;20339;-64
2023/10/11 04:03:34;;;;;;;;;;;14.90;99.90;;;;;;5135450;27;19991;-63
2023/10/11 04:05:59;;;;;;;;;;;14.90;99.90;;;;;;5135390;27;19984;-63
2023/10/11 04:08:26;;;;;;;;;;;14.80;99.90;;;;;;5135634;27;20038;-64
2023/10/11 04:10:53;;;;;;;;;;;14.80;99.90;;;;;;5135373;27;20004;-63
2023/10/11 04:13:25;;;;;;;;;;;14.70;99.90;;;;;;5135276;27;20073;-64
2023/10/11 04:15:52;;;;;;;;;;;14.70;99.90;;;;;;5135081;27;20025;-63
2023/10/11 04:18:27;;;;;;;;;;;14.70;99.90;;;;;;5135191;27;19981;-63
2023/10/11 04:23:39;;;;;;;;;;;14.70;99.90;;;;;;5103103;27;19984;-63
2023/10/11 04:26:16;;;;;;;;;;;14.70;99.90;;;;;;5116836;27;19990;-63
2023/10/11 04:28:42;;;;;;;;;;;14.60;99.90;;;;;;5135087;27;19993;-64
2023/10/11 04:33:54;;;;;;;;;;;14.60;99.90;;;;;;5135079;27;20003;-63
2023/10/11 04:36:20;;;;;;;;;;;14.60;99.90;;;;;;5134944;27;19984;-64
2023/10/11 04:38:49;;;;;;;;;;;14.50;99.90;;;;;;5134745;27;20083;-64
2023/10/11 04:41:19;;;;;;;;;;;14.50;99.90;;;;;;5134928;27;19994;-63
2023/10/11 04:43:52;;;;;;;;;;;14.50;99.90;;;;;;5134816;27;19980;-63
2023/10/11 04:46:21;;;;;;;;;;;14.50;99.90;;;;;;5134541;27;19985;-63
2023/10/11 04:48:48;;;;;;;;;;;14.50;99.90;;;;;;5134499;27;20102;-63
2023/10/11 04:59:08;;;;;;;;;;;14.40;99.90;;;;;;5134765;28;20006;-64
2023/10/11 05:04:16;;;;;;;;;;;14.40;99.90;;;;;;5134650;28;19984;-64
2023/10/11 05:06:42;;;;;;;;;;;14.50;99.90;;;;;;5134547;28;19981;-63
2023/10/11 05:11:53;;;;;;;;;;;14.50;99.90;;;;;;5134723;28;20516;-65
2023/10/11 05:17:16;;;;;;;;;;;14.40;99.90;;;;;;5134501;28;19980;-63
2023/10/11 05:19:45;;;;;;;;;;;14.40;99.90;;;;;;5134237;28;19980;-63
2023/10/11 05:22:16;;;;;;;;;;;14.50;99.90;;;;;;5134396;28;19981;-63
2023/10/11 05:30:11;;;;;;;;;;;14.60;99.90;;;;;;5134260;28;20004;-63
2023/10/11 05:51:39;;;;;;;;;;;14.70;99.90;;;;;;5134109;28;20053;-65
2023/10/11 05:54:07;;;;;;;;;;;14.70;99.90;;;;;;5133190;28;20442;-64
2023/10/11 05:56:41;;;;;;;;;;;14.70;99.90;;;;;;5133481;28;20076;-64
2023/10/11 05:59:10;;;;;;;;;;;14.70;99.90;;;;;;5119426;27;20137;-67
2023/10/11 06:01:36;;;;;;;;;;;14.70;99.90;;;;;;5132064;27;20036;-69
2023/10/11 06:04:04;;;;;;;;;;;14.80;99.90;;;;;;5133639;28;19981;-68
2023/10/11 06:06:38;;;;;;;;;;;14.80;99.90;;;;;;5129629;28;20093;-65
2023/10/11 06:09:43;;;;;;;;;;;14.90;99.90;;;;;;5133363;28;20002;-67
2023/10/11 06:11:57;;;;;;;;;;;14.90;99.90;;;;;;5129174;27;20363;-68
2023/10/11 06:14:23;;;;;;;;;;;14.90;99.90;;;;;;5117777;27;20104;-68
2023/10/11 06:16:55;;;;;;;;;;;15.00;99.90;;;;;;5138536;27;20333;-68
2023/10/11 06:19:25;;;;;;;;;;;15.00;99.90;;;;;;5137767;27;19980;-67
2023/10/11 06:22:09;;;;;;;;;;;15.00;99.90;;;;;;5137595;27;19980;-66
2023/10/11 06:24:39;;;;;;;;;;;15.10;99.90;;;;;;5136900;27;20049;-65
2023/10/11 06:28:09;;;;;;;;;;;15.20;99.90;;;;;;5134953;27;19987;-66
2023/10/11 06:29:57;;;;;;;;;;;15.20;99.90;;;;;;5136615;27;20057;-66
2023/10/11 06:32:23;;;;;;;;;;;17.50;98.90;;;;;;5117643;27;19988;-66
2023/10/11 06:34:52;;;;;;;;;;;20.40;87.60;;;;;;5137100;27;19981;-66
2023/10/11 06:37:24;;;;;;;;;;;22.80;68.20;;;;;;5136669;27;19984;-66
2023/10/11 06:42:22;;;;;;;;;;;26.10;50.00;;;;;;5136197;27;20067;-66
2023/10/11 06:44:58;;;;;;;;;;;26.70;47.70;;;;;;5135160;27;19984;-67
2023/10/11 06:47:24;;;;;;;;;;;27.50;45.60;;;;;;5133897;27;20075;-68
2023/10/11 06:49:54;;;;;;;;;;;28.10;43.80;;;;;;5132836;27;20013;-66
2023/10/11 06:52:25;;;;;;;;;;;28.60;42.70;;;;;;5133525;27;20415;-66
2023/10/11 06:55:07;;;;;;;;;;;29.10;41.70;;;;;;5133880;27;20033;-67
2023/10/11 06:57:38;;;;;;;;;;;29.40;41.00;;;;;;5132107;27;19988;-66
2023/10/11 07:00:45;;;;;;;;;;;29.90;40.30;;;;;;5134494;27;20026;-69
2023/10/11 07:03:09;;;;;;;;;;;30.50;39.50;;;;;;5112924;28;19996;-70
2023/10/11 07:05:40;;;;;;;;;;;31.20;39.00;;;;;;5114452;28;20380;-68
2023/10/11 07:08:08;;;;;;;;;;;31.90;38.60;;;;;;5106335;27;19988;-69
2023/10/11 07:10:34;;;;;;;;;;;32.40;36.90;;;;;;5116014;27;20008;-68
2023/10/11 07:13:03;;;;;;;;;;;32.90;36.60;;;;;;5105494;27;19988;-67
2023/10/11 07:15:40;;;;;;;;;;;33.20;35.50;;;;;;5117662;27;20361;-67
2023/10/11 07:18:13;;;;;;;;;;;33.50;35.50;;;;;;5135264;27;20003;-65
2023/10/11 07:20:49;;;;;;;;;;;34.00;34.10;;;;;;5117979;27;19984;-69
2023/10/11 07:23:19;;;;;;;;;;;34.50;34.30;;;;;;5134845;27;19984;-69
2023/10/11 07:25:49;;;;;;;;;;;34.80;33.30;;;;;;5136223;27;19980;-69
2023/10/11 07:28:35;;;;;;;;;;;35.00;32.80;;;;;;5136124;27;20438;-68
2023/10/11 07:31:13;;;;;;;;;;;35.30;32.70;;;;;;5135379;27;20477;-66
2023/10/11 07:33:38;;;;;;;;;;;35.70;32.60;;;;;;5136014;27;19987;-66
2023/10/11 07:36:11;;;;;;;;;;;36.00;32.20;;;;;;5133317;27;20014;-64
2023/10/11 07:38:46;;;;;;;;;;;36.00;31.10;;;;;;5124613;27;19985;-63
2023/10/11 07:41:17;;;;;;;;;;;35.80;31.60;;;;;;5124444;27;20488;-63
2023/10/11 07:43:45;;;;;;;;;;;36.10;31.30;;;;;;5131218;27;19984;-63
2023/10/11 07:46:11;;;;;;;;;;;36.20;31.40;;;;;;5129655;27;19980;-65
2023/10/11 07:48:39;;;;;;;;;;;36.50;30.50;;;;;;5128802;27;20031;-66
2023/10/11 07:51:10;;;;;;;;;;;36.80;31.40;;;;;;5121521;27;20057;-66
2023/10/11 07:53:46;;;;;;;;;;;36.80;31.00;;;;;;5109950;27;19996;-67
2023/10/11 07:56:15;;;;;;;;;;;36.90;31.20;;;;;;5129737;27;20095;-66
2023/10/11 07:58:45;;;;;;;;;;;37.20;30.50;;;;;;5130843;27;20023;-66
2023/10/11 08:04:11;;;;;;;;;;;37.80;30.20;;;;;;5096416;27;19995;-66
2023/10/11 08:06:40;;;;;;;;;;;38.00;29.50;;;;;;5112002;27;20399;-66
2023/10/11 08:09:06;;;;;;;;;;;38.30;30.10;;;;;;5114149;27;20399;-68
2023/10/11 08:11:45;;;;;;;;;;;38.40;29.10;;;;;;5115215;27;20412;-67
2023/10/11 08:14:15;;;;;;;;;;;38.50;29.00;;;;;;5132357;27;19991;-66
2023/10/11 08:16:47;;;;;;;;;;;38.50;29.70;;;;;;5132274;27;19981;-65
2023/10/11 08:19:15;;;;;;;;;;;38.80;28.90;;;;;;5133169;27;19981;-65
2023/10/11 08:21:47;;;;;;;;;;;38.70;30.00;;;;;;5133859;27;20038;-66
2023/10/11 08:24:15;;;;;;;;;;;38.40;29.20;;;;;;5134310;27;20447;-66
2023/10/11 08:26:45;;;;;;;;;;;38.30;29.00;;;;;;5134353;27;19987;-65
2023/10/11 08:29:30;;;;;;;;;;;38.10;30.20;;;;;;5125758;27;19979;-67
2023/10/11 08:31:57;;;;;;;;;;;38.00;29.60;;;;;;5121321;27;20000;-68
2023/10/11 08:34:23;;;;;;;;;;;37.50;29.90;;;;;;5134528;27;19991;-71
2023/10/11 08:36:49;;;;;;;;;;;37.00;31.00;;;;;;5120481;27;20321;-64
2023/10/11 08:39:14;;;;;;;;;;;36.70;30.10;;;;;;5138761;27;20780;-67
2023/10/11 08:41:43;;;;;;;;;;;36.20;30.80;;;;;;5110977;27;20009;-66
2023/10/11 08:44:15;;;;;;;;;;;36.00;30.70;;;;;;5128216;27;19988;-66
2023/10/11 08:46:45;;;;;;;;;;;35.70;32.10;;;;;;5119094;27;19985;-66
2023/10/11 08:49:11;;;;;;;;;;;35.10;33.60;;;;;;5126707;27;20397;-67
2023/10/11 08:51:41;;;;;;;;;;;34.70;33.20;;;;;;5124399;27;20015;-67
2023/10/11 08:54:11;;;;;;;;;;;34.20;32.60;;;;;;5112054;28;19996;-68
2023/10/11 08:56:38;;;;;;;;;;;33.70;33.90;;;;;;5121295;27;20011;-68
2023/10/11 08:59:04;;;;;;;;;;;33.40;34.70;;;;;;5113765;28;19989;-66
2023/10/11 09:01:34;;;;;;;;;;;33.30;34.70;;;;;;5130811;28;19995;-67
2023/10/11 09:04:11;;;;;;;;;;;33.30;36.20;;;;;;5131255;28;19995;-67
2023/10/11 09:06:40;;;;;;;;;;;33.10;36.20;;;;;;5128972;28;20126;-68
2023/10/11 09:09:07;;;;;;;;;;;32.90;36.00;;;;;;5131607;28;20067;-68
2023/10/11 09:11:32;;;;;;;;;;;32.70;37.50;;;;;;5131787;28;20470;-65
2023/10/11 09:14:22;;;;;;;;;;;32.90;36.30;;;;;;5133262;28;19994;-65
2023/10/11 09:16:48;;;;;;;;;;;32.80;37.40;;;;;;5114549;28;20010;-66
2023/10/11 09:19:19;;;;;;;;;;;32.60;38.40;;;;;;5132354;28;19985;-66
2023/10/11 09:22:02;;;;;;;;;;;32.60;37.20;;;;;;5133758;28;20391;-66
2023/10/11 09:24:38;;;;;;;;;;;32.60;37.00;;;;;;5114307;28;20033;-66
2023/10/11 09:27:18;;;;;;;;;;;32.70;36.80;;;;;;5113830;28;20089;-64
2023/10/11 09:29:55;;;;;;;;;;;32.50;37.10;;;;;;5115077;28;20076;-65
2023/10/11 09:32:31;;;;;;;;;;;32.60;36.40;;;;;;5112275;28;19984;-65
2023/10/11 09:34:56;;;;;;;;;;;32.90;36.50;;;;;;5110879;28;19991;-69
2023/10/11 09:37:23;;;;;;;;;;;32.80;36.60;;;;;;5116820;28;19988;-68
2023/10/11 09:39:53;;;;;;;;;;;32.80;36.00;;;;;;5116370;28;20039;-68
2023/10/11 09:42:22;;;;;;;;;;;32.90;35.70;;;;;;5115026;28;19981;-67
2023/10/11 09:44:57;;;;;;;;;;;32.90;35.50;;;;;;5112778;28;20438;-66
2023/10/11 09:47:24;;;;;;;;;;;32.70;36.00;;;;;;5100965;27;19988;-65
2023/10/11 09:49:53;;;;;;;;;;;32.80;37.40;;;;;;5119845;27;20255;-67
2023/10/11 09:52:23;;;;;;;;;;;32.90;34.80;;;;;;5118382;27;20382;-67
2023/10/11 09:54:50;;;;;;;;;;;32.80;35.50;;;;;;5101562;27;20014;-68
2023/10/11 09:57:29;;;;;;;;;;;32.30;36.30;;;;;;5115832;27;20434;-66
2023/10/11 10:00:16;;;;;;;;;;;32.50;34.60;;;;;;5121346;27;19980;-67
2023/10/11 10:02:44;;;;;;;;;;;32.50;34.80;;;;;;5087371;27;22781;-68
2023/10/11 10:05:11;;;;;;;;;;;32.20;32.50;;;;;;5114681;27;20414;-67
2023/10/11 10:07:45;;;;;;;;;;;32.10;34.40;;;;;;5115764;27;20037;-69
2023/10/11 10:10:13;;;;;;;;;;;32.40;34.70;;;;;;5118640;27;20012;-68
2023/10/11 10:12:58;;;;;;;;;;;32.60;34.40;;;;;;5123122;27;20459;-67
2023/10/11 10:15:28;;;;;;;;;;;32.70;33.80;;;;;;5098460;27;19996;-67
2023/10/11 10:17:57;;;;;;;;;;;32.90;31.90;;;;;;5117020;27;19992;-65
2023/10/11 10:20:34;;;;;;;;;;;32.60;32.20;;;;;;5130167;27;20020;-65
2023/10/11 10:23:21;;;;;;;;;;;32.60;31.40;;;;;;5115822;28;19987;-65
2023/10/11 10:26:13;;;;;;;;;;;32.40;31.50;;;;;;5114015;28;20351;-65
2023/10/11 10:28:49;;;;;;;;;;;32.40;33.90;;;;;;5115194;28;20100;-65
2023/10/11 10:31:18;;;;;;;;;;;32.50;31.80;;;;;;5115470;28;20001;-65
2023/10/11 10:33:49;;;;;;;;;;;32.60;31.50;;;;;;5115402;28;20025;-65
2023/10/11 10:36:21;;;;;;;;;;;32.70;33.20;;;;;;5132311;27;19988;-65
2023/10/11 10:41:36;;;;;;;;;;;33.20;31.20;;;;;;5135812;27;19999;-64
2023/10/11 10:44:12;;;;;;;;;;;33.50;32.10;;;;;;5115718;27;19984;-64
2023/10/11 10:46:51;;;;;;;;;;;33.70;30.50;;;;;;5134893;27;19988;-65
2023/10/11 10:49:18;;;;;;;;;;;33.40;32.00;;;;;;5125557;27;20978;-64
2023/10/11 10:51:56;;;;;;;;;;;33.00;32.60;;;;;;5131899;27;20012;-65
2023/10/11 10:54:23;;;;;;;;;;;32.90;31.40;;;;;;5113856;27;20108;-64
2023/10/11 10:56:53;;;;;;;;;;;32.80;31.40;;;;;;5115571;27;20041;-64
2023/10/11 10:59:26;;;;;;;;;;;32.70;31.50;;;;;;5133433;27;20041;-64
2023/10/11 11:01:53;;;;;;;;;;;32.60;33.70;;;;;;5133511;27;19984;-65
2023/10/11 11:04:27;;;;;;;;;;;32.90;34.20;;;;;;5134409;27;19980;-65
2023/10/11 11:06:53;;;;;;;;;;;33.10;32.80;;;;;;5133539;27;20031;-65
2023/10/11 11:09:19;;;;;;;;;;;33.30;33.00;;;;;;5131960;27;20033;-65
2023/10/11 11:11:46;;;;;;;;;;;33.60;32.60;;;;;;5133161;27;20000;-65
2023/10/11 11:14:13;;;;;;;;;;;33.80;30.30;;;;;;5134774;27;20457;-65
2023/10/11 11:16:40;;;;;;;;;;;33.40;30.60;;;;;;5134241;27;19981;-65
2023/10/11 11:19:19;;;;;;;;;;;33.20;30.90;;;;;;5134332;27;19985;-64
2023/10/11 11:21:45;;;;;;;;;;;33.20;30.30;;;;;;5133657;27;20035;-64
2023/10/11 11:24:27;;;;;;;;;;;33.20;32.00;;;;;;5133481;27;20016;-64
2023/10/11 11:26:53;;;;;;;;;;;33.00;30.30;;;;;;5131963;27;20406;-65
2023/10/11 11:29:31;;;;;;;;;;;32.90;33.80;;;;;;5132685;27;20387;-64
2023/10/11 11:31:59;;;;;;;;;;;33.30;34.60;;;;;;5134530;27;19988;-65
2023/10/11 11:34:27;;;;;;;;;;;33.50;31.90;;;;;;5133145;27;20024;-64
2023/10/11 11:36:56;;;;;;;;;;;33.30;31.10;;;;;;5134154;27;20454;-65
2023/10/11 11:39:36;;;;;;;;;;;33.20;31.90;;;;;;5134997;27;20019;-65
2023/10/11 11:42:09;;;;;;;;;;;33.20;31.00;;;;;;5134849;27;20448;-67
2023/10/11 11:44:36;;;;;;;;;;;33.20;33.30;;;;;;5135018;27;19980;-65
2023/10/11 11:47:06;;;;;;;;;;;33.30;32.60;;;;;;5134528;27;19980;-65
2023/10/11 11:49:33;;;;;;;;;;;33.60;32.50;;;;;;5134367;27;20059;-63
2023/10/11 11:51:59;;;;;;;;;;;33.90;31.90;;;;;;5134254;27;20049;-64
2023/10/11 11:54:31;;;;;;;;;;;34.00;32.50;;;;;;5133828;27;20454;-65
2023/10/11 11:56:57;;;;;;;;;;;34.00;32.00;;;;;;5134956;27;19981;-66
2023/10/11 11:59:23;;;;;;;;;;;34.00;30.30;;;;;;5134033;27;19988;-66
2023/10/11 12:01:49;;;;;;;;;;;33.80;29.90;;;;;;5135477;27;20049;-66
2023/10/11 12:04:20;;;;;;;;;;;33.30;33.50;;;;;;5135487;27;20004;-65
2023/10/11 12:06:49;;;;;;;;;;;33.50;31.20;;;;;;5135451;27;20439;-65
2023/10/11 12:09:21;;;;;;;;;;;33.90;31.00;;;;;;5134772;27;19980;-64
2023/10/11 12:11:49;;;;;;;;;;;34.20;29.90;;;;;;5132477;27;20004;-66
2023/10/11 12:14:15;;;;;;;;;;;34.30;30.30;;;;;;5133021;27;19980;-65
2023/10/11 12:16:44;;;;;;;;;;;34.40;30.30;;;;;;5133328;27;19987;-64
2023/10/11 12:19:13;;;;;;;;;;;34.50;30.10;;;;;;5133213;27;20079;-64
2023/10/11 12:21:39;;;;;;;;;;;34.50;32.60;;;;;;5133194;27;20006;-64
2023/10/11 12:24:10;;;;;;;;;;;34.80;31.60;;;;;;5133169;27;20430;-66
2023/10/11 12:26:40;;;;;;;;;;;34.80;29.70;;;;;;5116689;27;20045;-65
2023/10/11 12:29:08;;;;;;;;;;;34.60;29.80;;;;;;5134788;27;19988;-65
2023/10/11 12:31:38;;;;;;;;;;;34.20;29.20;;;;;;5134959;27;20015;-63
2023/10/11 12:34:09;;;;;;;;;;;33.90;29.30;;;;;;5134037;27;20075;-64
2023/10/11 12:36:41;;;;;;;;;;;33.90;30.50;;;;;;5134747;27;19984;-64
2023/10/11 12:39:08;;;;;;;;;;;34.00;32.30;;;;;;5134816;27;20475;-64
2023/10/11 12:41:37;;;;;;;;;;;34.30;30.10;;;;;;5134846;27;19984;-66
2023/10/11 12:44:07;;;;;;;;;;;34.70;30.00;;;;;;5134484;27;19980;-64
2023/10/11 12:46:33;;;;;;;;;;;34.80;29.50;;;;;;5134926;27;20078;-63
2023/10/11 12:48:59;;;;;;;;;;;34.60;28.30;;;;;;5134341;27;20063;-63
2023/10/11 12:51:25;;;;;;;;;;;34.30;29.10;;;;;;5134529;27;20502;-65
2023/10/11 12:53:54;;;;;;;;;;;34.20;28.70;;;;;;5134687;27;19996;-65
2023/10/11 12:56:21;;;;;;;;;;;34.30;29.80;;;;;;5116102;27;19985;-65
2023/10/11 12:58:50;;;;;;;;;;;34.50;29.50;;;;;;5115868;28;20033;-65
2023/10/11 13:01:25;;;;;;;;;;;34.40;29.10;;;;;;5134536;27;19984;-63
2023/10/11 13:04:05;;;;;;;;;;;34.30;29.30;;;;;;5134498;28;20391;-65
2023/10/11 13:06:31;;;;;;;;;;;34.40;30.40;;;;;;5134458;28;20030;-63
2023/10/11 13:08:59;;;;;;;;;;;34.40;30.00;;;;;;5134183;28;19993;-64
2023/10/11 13:11:24;;;;;;;;;;;34.40;28.70;;;;;;5134289;28;20164;-63
2023/10/11 13:13:50;;;;;;;;;;;34.40;29.50;;;;;;5134184;28;19988;-63
2023/10/11 13:16:26;;;;;;;;;;;34.60;30.00;;;;;;5115945;28;20450;-64
2023/10/11 13:18:52;;;;;;;;;;;34.70;31.80;;;;;;5134515;28;20074;-65
2023/10/11 13:21:20;;;;;;;;;;;34.60;30.10;;;;;;5134267;28;20046;-65
2023/10/11 13:23:45;;;;;;;;;;;34.40;29.40;;;;;;5137596;27;20054;-66
2023/10/11 13:26:18;;;;;;;;;;;33.90;29.00;;;;;;5138581;27;20029;-64
2023/10/11 13:28:48;;;;;;;;;;;33.70;29.90;;;;;;5138458;27;19985;-65
2023/10/11 13:31:15;;;;;;;;;;;33.80;29.40;;;;;;5138413;27;20008;-63
2023/10/11 13:33:42;;;;;;;;;;;33.80;30.50;;;;;;5137664;27;19980;-64
2023/10/11 13:36:08;;;;;;;;;;;33.80;30.60;;;;;;5138465;27;19981;-66
2023/10/11 13:38:34;;;;;;;;;;;34.00;31.30;;;;;;5137047;27;20037;-63
2023/10/11 13:41:00;;;;;;;;;;;34.20;30.70;;;;;;5137417;27;20059;-65
2023/10/11 13:43:26;;;;;;;;;;;34.30;28.80;;;;;;5138056;27;20031;-65
2023/10/11 13:46:01;;;;;;;;;;;34.30;28.80;;;;;;5137475;27;19984;-64
2023/10/11 13:48:33;;;;;;;;;;;34.50;30.70;;;;;;5129887;27;20012;-65
2023/10/11 13:51:03;;;;;;;;;;;34.70;29.60;;;;;;5137891;27;20102;-65
2023/10/11 13:53:28;;;;;;;;;;;34.80;29.50;;;;;;5137843;27;19996;-66
2023/10/11 13:55:54;;;;;;;;;;;34.90;28.50;;;;;;5137983;27;19981;-64
2023/10/11 13:58:20;;;;;;;;;;;34.90;29.90;;;;;;5137735;27;19980;-63
2023/10/11 14:05:40;;;;;;;;;;;34.40;30.20;;;;;;5138205;27;20442;-64
2023/10/11 14:10:50;;;;;;;;;;;33.40;32.10;;;;;;5137779;27;20011;-64
2023/10/11 14:13:16;;;;;;;;;;;32.80;33.40;;;;;;5137623;27;19981;-66
2023/10/11 14:15:41;;;;;;;;;;;32.70;32.00;;;;;;5137780;27;19988;-63
2023/10/11 14:18:15;;;;;;;;;;;32.30;32.30;;;;;;5137657;27;20064;-65
2023/10/11 14:20:45;;;;;;;;;;;31.90;33.70;;;;;;5137498;27;19985;-63
2023/10/11 14:23:11;;;;;;;;;;;31.60;33.40;;;;;;5137520;27;19980;-63
2023/10/11 14:25:36;;;;;;;;;;;31.30;31.80;;;;;;5137287;27;19987;-64
2023/10/11 14:28:03;;;;;;;;;;;30.90;32.60;;;;;;5137402;27;19981;-64
2023/10/11 14:30:29;;;;;;;;;;;30.60;34.00;;;;;;5137482;27;20012;-63
2023/10/11 14:32:54;;;;;;;;;;;30.40;32.70;;;;;;5137300;27;20482;-64
2023/10/11 14:35:21;;;;;;;;;;;30.20;34.80;;;;;;5136415;27;20023;-64
2023/10/11 14:37:47;;;;;;;;;;;29.90;32.70;;;;;;5137302;27;20396;-64
2023/10/11 14:40:15;;;;;;;;;;;29.90;34.20;;;;;;5118572;27;19985;-65
2023/10/11 14:42:42;;;;;;;;;;;29.80;34.60;;;;;;5137085;27;20434;-63
2023/10/11 14:45:11;;;;;;;;;;;29.60;34.10;;;;;;5137053;27;20395;-65
2023/10/11 14:47:47;;;;;;;;;;;29.20;34.30;;;;;;5137095;27;19981;-64
2023/10/11 14:50:13;;;;;;;;;;;28.70;35.50;;;;;;5136756;27;20041;-65
2023/10/11 14:52:39;;;;;;;;;;;28.30;36.20;;;;;;5136967;27;20012;-64
2023/10/11 14:55:05;;;;;;;;;;;28.20;36.50;;;;;;5136700;27;19996;-64
2023/10/11 14:57:31;;;;;;;;;;;28.00;36.90;;;;;;5135493;27;20075;-63
2023/10/11 14:59:56;;;;;;;;;;;27.60;37.50;;;;;;5134944;27;20067;-63
2023/10/11 15:02:22;;;;;;;;;;;27.40;38.90;;;;;;5135349;27;19980;-65
2023/10/11 15:04:50;;;;;;;;;;;27.30;38.80;;;;;;5135993;27;19986;-64
2023/10/11 15:07:18;;;;;;;;;;;27.20;39.50;;;;;;5136247;27;20079;-64
2023/10/11 15:09:44;;;;;;;;;;;27.10;40.10;;;;;;5136098;27;20363;-65
2023/10/11 15:12:10;;;;;;;;;;;27.10;39.70;;;;;;5136604;27;20006;-64
2023/10/11 15:14:36;;;;;;;;;;;27.00;39.60;;;;;;5136513;27;19989;-65
2023/10/11 15:17:02;;;;;;;;;;;26.60;40.70;;;;;;5136450;27;19980;-65
2023/10/11 15:19:28;;;;;;;;;;;26.30;41.10;;;;;;5136494;27;19980;-65
2023/10/11 15:21:53;;;;;;;;;;;26.10;42.10;;;;;;5136323;27;20039;-65
2023/10/11 15:24:23;;;;;;;;;;;25.90;41.90;;;;;;5136180;27;20563;-63
2023/10/11 15:26:49;;;;;;;;;;;25.70;42.80;;;;;;5117910;27;20406;-64
2023/10/11 15:29:14;;;;;;;;;;;25.40;43.70;;;;;;5136188;27;20121;-63
2023/10/11 15:31:40;;;;;;;;;;;25.20;44.30;;;;;;5136227;27;20111;-63
2023/10/11 15:34:12;;;;;;;;;;;25.00;44.50;;;;;;5136172;27;19987;-62
2023/10/11 15:36:41;;;;;;;;;;;24.90;44.90;;;;;;5136032;27;19980;-62
2023/10/11 15:39:08;;;;;;;;;;;24.80;45.70;;;;;;5135917;27;20431;-63